createdAt,value
2017-10-19T00:02:09.486Z,81.30
2017-10-19T00:04:37.786Z,81.30
2017-10-19T00:07:06.362Z,81.20
2017-10-19T00:09:35.269Z,81.50
2017-10-19T00:12:04.165Z,81.30
2017-10-19T00:14:32.316Z,81.20
2017-10-19T00:17:00.442Z,81.00
2017-10-19T00:19:28.572Z,81.00
2017-10-19T00:21:57.457Z,81.40
2017-10-19T00:24:27.668Z,81.80
2017-10-19T00:26:56.233Z,81.80
2017-10-19T00:29:24.373Z,82.20
2017-10-19T00:31:52.961Z,81.50
2017-10-19T00:34:21.118Z,81.50
2017-10-19T00:36:49.228Z,81.80
2017-10-19T00:39:17.349Z,81.70
2017-10-19T00:41:46.262Z,81.60
2017-10-19T00:44:14.378Z,81.60
2017-10-19T00:46:42.521Z,81.40
2017-10-19T00:49:10.673Z,81.90
2017-10-19T00:51:40.141Z,82.10
2017-10-19T00:54:08.252Z,82.20
2017-10-19T00:56:36.401Z,82.80
2017-10-19T00:59:05.276Z,82.50
2017-10-19T01:01:33.417Z,82.50
2017-10-19T01:04:01.531Z,82.20
2017-10-19T01:06:29.676Z,81.30
2017-10-19T01:08:58.604Z,80.70
2017-10-19T01:11:27.510Z,81.00
2017-10-19T01:13:55.649Z,80.90
2017-10-19T01:16:23.807Z,80.70
2017-10-19T01:18:51.922Z,80.90
2017-10-19T01:21:20.084Z,80.90
2017-10-19T01:23:48.972Z,82.20
2017-10-19T01:26:17.128Z,82.20
2017-10-19T01:28:45.705Z,82.50
2017-10-19T01:31:13.830Z,82.90
2017-10-19T01:33:41.963Z,83.40
2017-10-19T01:36:10.090Z,84.00
2017-10-19T01:38:38.231Z,83.90
2017-10-19T01:41:07.931Z,83.80
2017-10-19T01:43:36.061Z,83.80
2017-10-19T01:46:04.171Z,83.20
2017-10-19T01:48:33.079Z,82.60
2017-10-19T01:51:01.974Z,82.10
2017-10-19T01:53:30.874Z,82.30
2017-10-19T01:55:58.980Z,82.30
2017-10-19T01:58:27.119Z,83.10
2017-10-19T02:00:55.229Z,83.00
2017-10-19T02:03:23.803Z,82.60
2017-10-19T02:05:51.913Z,83.60
2017-10-19T02:08:21.253Z,82.80
2017-10-19T02:10:49.360Z,82.90
2017-10-19T02:13:17.508Z,82.50
2017-10-19T02:15:45.632Z,82.50
2017-10-19T02:18:13.773Z,82.20
2017-10-19T02:20:41.907Z,82.20
2017-10-19T02:23:10.854Z,82.00
2017-10-19T02:25:40.201Z,82.00
2017-10-19T02:28:09.105Z,81.60
2017-10-19T02:30:37.229Z,81.50
2017-10-19T02:33:05.393Z,81.30
2017-10-19T02:35:34.042Z,81.10
2017-10-19T02:38:02.166Z,81.10
2017-10-19T02:40:30.304Z,81.20
2017-10-19T02:42:58.444Z,81.20
2017-10-19T02:45:26.603Z,81.60
2017-10-19T02:47:55.490Z,81.20
2017-10-19T02:50:24.406Z,81.10
2017-10-19T02:52:52.534Z,81.00
2017-10-19T02:55:20.693Z,81.00
2017-10-19T02:57:49.802Z,81.90
2017-10-19T03:00:17.940Z,81.20
2017-10-19T03:02:46.070Z,80.90
2017-10-19T03:05:14.686Z,81.00
2017-10-19T03:07:42.797Z,80.70
2017-10-19T03:10:11.005Z,80.80
2017-10-19T03:12:39.886Z,80.60
2017-10-19T03:15:08.048Z,80.50
2017-10-19T03:17:36.658Z,80.50
2017-10-19T03:20:05.569Z,80.40
2017-10-19T03:22:33.694Z,80.30
2017-10-19T03:25:01.843Z,80.50
2017-10-19T03:27:29.964Z,80.70
2017-10-19T03:29:58.897Z,81.10
2017-10-19T03:32:27.029Z,80.90
2017-10-19T03:34:55.633Z,80.70
2017-10-19T03:37:23.771Z,80.90
2017-10-19T03:39:51.894Z,80.60
2017-10-19T03:42:20.042Z,81.20
2017-10-19T03:44:48.924Z,80.80
2017-10-19T03:47:17.837Z,80.60
2017-10-19T03:49:48.293Z,80.30
2017-10-19T03:52:16.445Z,80.30
2017-10-19T03:54:44.573Z,80.60
2017-10-19T03:57:12.722Z,80.00
2017-10-19T03:59:40.858Z,79.60
2017-10-19T04:02:09.006Z,79.40
2017-10-19T04:04:37.893Z,80.30
2017-10-19T04:07:06.034Z,79.50
2017-10-19T04:09:34.162Z,79.60
2017-10-19T04:12:03.065Z,79.90
2017-10-19T04:14:31.181Z,80.00
2017-10-19T04:16:59.329Z,79.80
2017-10-19T04:19:27.452Z,80.00
2017-10-19T04:21:56.452Z,80.10
2017-10-19T04:24:25.361Z,79.60
2017-10-19T04:26:53.481Z,79.50
2017-10-19T04:29:21.624Z,79.60
2017-10-19T04:31:49.773Z,79.30
2017-10-19T04:34:18.245Z,79.50
2017-10-19T04:36:46.437Z,79.40
2017-10-19T04:39:14.582Z,79.90
2017-10-19T04:41:45.752Z,80.00
2017-10-19T04:44:14.453Z,80.50
2017-10-19T04:46:42.581Z,80.90
2017-10-19T04:49:10.748Z,80.30
2017-10-19T04:51:39.280Z,80.00
2017-10-19T04:54:07.420Z,80.50
2017-10-19T04:56:36.317Z,80.90
2017-10-19T04:59:05.230Z,81.90
2017-10-19T05:01:33.349Z,81.10
2017-10-19T05:04:03.581Z,81.00
2017-10-19T05:06:31.737Z,80.90
2017-10-19T05:09:00.268Z,81.20
2017-10-19T05:11:29.153Z,80.50
2017-10-19T05:13:58.071Z,79.80
2017-10-19T05:16:26.601Z,79.70
2017-10-19T05:18:54.766Z,79.20
2017-10-19T05:21:23.688Z,79.00
2017-10-19T05:23:52.614Z,78.70
2017-10-19T05:26:20.748Z,78.70
2017-10-19T05:28:48.931Z,78.40
2017-10-19T05:31:17.823Z,78.40
2017-10-19T05:33:47.212Z,78.40
2017-10-19T05:36:16.121Z,78.40
2017-10-19T05:38:44.999Z,78.70
2017-10-19T05:41:13.919Z,79.00
2017-10-19T05:43:42.048Z,78.80
2017-10-19T05:46:10.188Z,79.00
2017-10-19T05:48:38.829Z,79.00
2017-10-19T05:51:08.716Z,79.60
2017-10-19T05:53:36.837Z,79.60
2017-10-19T05:56:05.826Z,79.80
2017-10-19T05:58:34.709Z,80.30
2017-10-19T06:01:03.611Z,80.30
2017-10-19T06:03:31.748Z,80.30
2017-10-19T06:05:59.882Z,80.10
2017-10-19T06:08:28.477Z,80.00
2017-10-19T06:10:56.624Z,80.00
2017-10-19T06:13:24.745Z,80.00
2017-10-19T06:15:52.901Z,79.80
2017-10-19T06:18:21.018Z,80.20
2017-10-19T06:20:49.923Z,80.30
2017-10-19T06:23:18.063Z,80.30
2017-10-19T06:25:46.224Z,80.00
2017-10-19T06:28:14.414Z,79.60
2017-10-19T06:30:43.338Z,79.40
2017-10-19T06:33:11.463Z,79.40
2017-10-19T06:35:39.615Z,79.40
2017-10-19T06:38:07.752Z,79.30
2017-10-19T06:40:36.004Z,79.70
2017-10-19T06:43:04.115Z,79.90
2017-10-19T06:45:32.277Z,79.90
2017-10-19T06:48:01.166Z,80.10
2017-10-19T06:50:30.082Z,79.90
2017-10-19T06:52:58.196Z,79.90
2017-10-19T06:55:27.566Z,80.00
2017-10-19T06:57:55.689Z,80.00
2017-10-19T07:00:24.631Z,80.30
2017-10-19T07:02:52.761Z,80.20
2017-10-19T07:05:21.339Z,80.20
2017-10-19T07:07:50.257Z,80.30
2017-10-19T07:10:18.377Z,80.30
2017-10-19T07:12:46.526Z,80.50
2017-10-19T07:15:14.723Z,80.20
2017-10-19T07:17:42.881Z,79.30
2017-10-19T07:20:11.517Z,78.50
2017-10-19T07:22:40.429Z,77.50
2017-10-19T07:25:08.823Z,77.60
2017-10-19T07:27:37.125Z,76.90
2017-10-19T07:30:05.247Z,75.30
2017-10-19T07:32:33.389Z,73.70
2017-10-19T07:35:01.849Z,71.00
2017-10-19T07:37:30.055Z,69.80
2017-10-19T07:39:58.197Z,69.30
2017-10-19T07:42:26.366Z,68.00
2017-10-19T07:44:54.507Z,64.80
2017-10-19T07:47:22.680Z,63.80
2017-10-19T07:49:50.801Z,61.20
2017-10-19T07:52:18.994Z,58.10
2017-10-19T07:54:47.113Z,55.20
2017-10-19T07:57:15.278Z,53.70
2017-10-19T07:59:43.400Z,53.70
2017-10-19T08:02:11.543Z,56.30
2017-10-19T08:04:39.665Z,56.10
2017-10-19T08:07:08.610Z,55.00
2017-10-19T08:09:36.720Z,54.90
2017-10-19T08:12:04.917Z,54.70
2017-10-19T08:14:33.814Z,56.40
2017-10-19T08:17:03.007Z,57.50
2017-10-19T08:19:31.266Z,57.40
2017-10-19T08:22:00.197Z,60.20
2017-10-19T08:24:28.331Z,60.20
2017-10-19T08:26:56.499Z,60.30
2017-10-19T08:29:24.621Z,60.90
2017-10-19T08:31:52.757Z,60.50
2017-10-19T08:34:21.642Z,59.30
2017-10-19T08:36:49.771Z,59.30
2017-10-19T08:39:17.892Z,60.20
2017-10-19T08:41:46.811Z,62.50
2017-10-19T08:44:14.924Z,62.50
2017-10-19T08:46:43.437Z,63.30
2017-10-19T08:49:12.323Z,64.60
2017-10-19T08:51:41.243Z,64.60
2017-10-19T08:54:09.376Z,64.60
2017-10-19T08:56:37.567Z,66.30
2017-10-19T08:59:06.493Z,66.60
2017-10-19T09:01:34.629Z,66.50
2017-10-19T09:04:03.662Z,68.20
2017-10-19T09:06:31.788Z,68.50
2017-10-19T09:08:59.941Z,68.30
2017-10-19T09:11:28.073Z,69.30
2017-10-19T09:13:57.226Z,69.00
2017-10-19T09:16:26.152Z,68.30
2017-10-19T09:18:54.312Z,68.30
2017-10-19T09:21:24.100Z,69.40
2017-10-19T09:23:52.253Z,69.40
2017-10-19T09:26:20.791Z,67.90
2017-10-19T09:28:49.053Z,68.30
2017-10-19T09:31:17.943Z,68.30
2017-10-19T09:33:46.846Z,69.00
2017-10-19T09:36:15.734Z,69.80
2017-10-19T09:38:44.641Z,69.00
2017-10-19T09:41:12.755Z,69.00
2017-10-19T09:43:43.583Z,68.50
2017-10-19T09:46:11.700Z,69.00
2017-10-19T09:48:40.620Z,69.90
2017-10-19T09:51:09.349Z,69.80
2017-10-19T09:53:37.484Z,70.00
2017-10-19T09:56:05.628Z,70.30
2017-10-19T09:58:34.536Z,68.80
2017-10-19T10:01:02.656Z,68.80
2017-10-19T10:03:30.769Z,68.30
2017-10-19T10:05:59.678Z,69.80
2017-10-19T10:08:27.852Z,70.50
2017-10-19T10:10:55.989Z,70.10
2017-10-19T10:13:24.116Z,69.50
2017-10-19T10:15:52.253Z,69.40
2017-10-19T10:18:21.136Z,68.50
2017-10-19T10:20:49.278Z,68.50
2017-10-19T10:23:17.398Z,67.90
2017-10-19T10:25:45.910Z,65.50
2017-10-19T10:28:14.021Z,67.70
2017-10-19T10:30:42.172Z,68.50
2017-10-19T10:33:12.335Z,68.20
2017-10-19T10:35:41.239Z,69.30
2017-10-19T10:38:09.394Z,68.60
2017-10-19T10:40:37.540Z,69.50
2017-10-19T10:43:05.662Z,69.60
2017-10-19T10:45:33.804Z,69.10
2017-10-19T10:48:01.913Z,69.40
2017-10-19T10:50:30.061Z,69.80
2017-10-19T10:52:58.204Z,69.00
2017-10-19T10:55:26.360Z,69.10
2017-10-19T10:57:54.622Z,68.10
2017-10-19T11:00:22.841Z,68.30
2017-10-19T11:02:50.974Z,67.40
2017-10-19T11:05:19.113Z,66.30
2017-10-19T11:07:48.007Z,66.80
2017-10-19T11:10:16.886Z,63.40
2017-10-19T11:12:45.786Z,65.80
2017-10-19T11:15:14.759Z,64.60
2017-10-19T11:17:42.902Z,64.60
2017-10-19T11:20:11.029Z,65.20
2017-10-19T11:22:39.944Z,65.30
2017-10-19T11:25:08.053Z,65.30
2017-10-19T11:27:36.190Z,63.60
2017-10-19T11:30:04.313Z,65.20
2017-10-19T11:32:32.453Z,63.80
2017-10-19T11:35:01.225Z,63.50
2017-10-19T11:37:29.363Z,63.90
2017-10-19T11:39:57.993Z,64.80
2017-10-19T11:42:26.136Z,64.10
2017-10-19T11:44:55.331Z,65.10
2017-10-19T11:47:24.229Z,64.40
2017-10-19T11:49:53.113Z,63.40
2017-10-19T11:52:22.022Z,64.40
2017-10-19T11:54:50.159Z,64.40
2017-10-19T11:57:18.303Z,65.00
2017-10-19T11:59:46.422Z,63.00
2017-10-19T12:02:15.337Z,63.90
2017-10-19T12:04:43.444Z,63.90
2017-10-19T12:07:11.786Z,64.60
2017-10-19T12:09:39.892Z,64.80
2017-10-19T12:12:08.046Z,65.40
2017-10-19T12:14:36.172Z,62.70
2017-10-19T12:17:05.755Z,63.40
2017-10-19T12:19:34.556Z,64.20
2017-10-19T12:22:02.735Z,65.30
2017-10-19T12:24:30.858Z,64.70
2017-10-19T12:26:58.982Z,65.60
2017-10-19T12:29:27.124Z,65.10
2017-10-19T12:31:55.253Z,64.30
2017-10-19T12:34:24.148Z,63.90
2017-10-19T12:36:53.037Z,64.00
2017-10-19T12:39:21.939Z,63.80
2017-10-19T12:41:50.070Z,63.80
2017-10-19T12:44:18.208Z,64.90
2017-10-19T12:46:46.339Z,64.30
2017-10-19T12:49:15.656Z,65.20
2017-10-19T12:51:43.768Z,65.20
2017-10-19T12:54:11.917Z,66.70
2017-10-19T12:56:40.029Z,66.90
2017-10-19T12:59:08.164Z,65.20
2017-10-19T13:01:36.303Z,65.90
2017-10-19T13:04:05.109Z,65.70
2017-10-19T13:06:33.224Z,65.90
2017-10-19T13:09:01.368Z,65.20
2017-10-19T13:11:29.916Z,66.90
2017-10-19T13:13:59.955Z,67.80
2017-10-19T13:16:28.067Z,67.50
2017-10-19T13:18:56.221Z,65.80
2017-10-19T13:21:25.406Z,66.90
2017-10-19T13:23:53.574Z,65.80
2017-10-19T13:26:21.693Z,65.70
2017-10-19T13:28:50.200Z,65.90
2017-10-19T13:31:18.368Z,67.30
2017-10-19T13:33:46.501Z,67.20
2017-10-19T13:36:15.197Z,65.70
2017-10-19T13:38:43.773Z,66.90
2017-10-19T13:41:11.915Z,66.40
2017-10-19T13:43:40.800Z,66.90
2017-10-19T13:46:09.707Z,67.40
2017-10-19T13:48:38.835Z,68.60
2017-10-19T13:51:07.293Z,68.70
2017-10-19T13:53:35.396Z,69.20
2017-10-19T13:56:04.070Z,69.40
2017-10-19T13:58:32.217Z,69.30
2017-10-19T14:01:00.365Z,68.90
2017-10-19T14:03:28.477Z,68.00
2017-10-19T14:05:56.609Z,69.10
2017-10-19T14:08:24.723Z,69.40
2017-10-19T14:10:52.861Z,69.80
2017-10-19T14:13:20.968Z,69.20
2017-10-19T14:15:49.101Z,69.20
2017-10-19T14:18:17.224Z,69.40
2017-10-19T14:20:45.374Z,69.80
2017-10-19T14:23:14.262Z,71.20
2017-10-19T14:25:43.680Z,69.30
2017-10-19T14:28:11.964Z,69.20
2017-10-19T14:30:42.616Z,70.40
2017-10-19T14:33:10.746Z,71.20
2017-10-19T14:35:39.657Z,69.50
2017-10-19T14:38:08.713Z,69.50
2017-10-19T14:40:38.364Z,70.10
2017-10-19T14:43:06.518Z,70.00
2017-10-19T14:45:35.407Z,70.60
2017-10-19T14:48:04.811Z,70.80
2017-10-19T14:50:33.704Z,70.70
2017-10-19T14:53:03.920Z,71.20
2017-10-19T14:55:32.801Z,71.10
2017-10-19T14:58:00.950Z,71.10
2017-10-19T15:00:30.520Z,70.30
2017-10-19T15:02:58.662Z,70.40
2017-10-19T15:05:26.797Z,70.10
2017-10-19T15:07:55.036Z,70.10
2017-10-19T15:10:23.378Z,70.70
2017-10-19T15:12:53.182Z,70.70
2017-10-19T15:15:21.355Z,70.10
2017-10-19T15:17:49.720Z,70.00
2017-10-19T15:20:18.068Z,69.80
2017-10-19T15:22:46.270Z,69.20
2017-10-19T15:25:14.414Z,69.90
2017-10-19T15:27:42.566Z,70.60
2017-10-19T15:30:10.684Z,71.30
2017-10-19T15:32:38.842Z,70.70
2017-10-19T15:35:08.185Z,72.00
2017-10-19T15:37:36.323Z,72.00
2017-10-19T15:40:04.451Z,70.90
2017-10-19T15:42:32.608Z,72.00
2017-10-19T15:45:02.038Z,72.40
2017-10-19T15:47:30.973Z,73.20
2017-10-19T15:49:59.083Z,72.40
2017-10-19T15:52:27.204Z,71.10
2017-10-19T15:54:55.710Z,70.90
2017-10-19T15:57:23.868Z,70.30
2017-10-19T15:59:53.526Z,69.80
2017-10-19T16:02:23.169Z,69.70
2017-10-19T16:04:51.351Z,70.70
2017-10-19T16:07:19.465Z,71.00
2017-10-19T16:09:47.618Z,72.30
2017-10-19T16:12:15.740Z,72.70
2017-10-19T16:14:44.662Z,73.40
2017-10-19T16:17:12.790Z,73.40
2017-10-19T16:19:40.940Z,73.90
2017-10-19T16:22:09.072Z,74.20
2017-10-19T16:24:37.204Z,74.30
2017-10-19T16:27:05.330Z,74.40
2017-10-19T16:29:33.477Z,74.70
2017-10-19T16:32:02.365Z,75.00
2017-10-19T16:34:31.260Z,75.20
2017-10-19T16:37:00.154Z,75.30
2017-10-19T16:39:29.114Z,75.40
2017-10-19T16:41:57.239Z,75.20
2017-10-19T16:44:25.376Z,75.50
2017-10-19T16:46:53.932Z,76.00
2017-10-19T16:49:22.073Z,76.10
2017-10-19T16:51:50.195Z,76.20
2017-10-19T16:54:18.345Z,76.10
2017-10-19T16:56:50.353Z,76.10
2017-10-19T16:59:19.945Z,75.90
2017-10-19T17:01:48.079Z,76.00
2017-10-19T17:04:17.845Z,76.30
2017-10-19T17:06:46.477Z,76.70
2017-10-19T17:09:14.988Z,76.80
2017-10-19T17:11:43.559Z,76.70
2017-10-19T17:14:12.972Z,76.70
2017-10-19T17:16:41.108Z,76.70
2017-10-19T17:19:09.226Z,76.50
2017-10-19T17:21:37.417Z,76.30
2017-10-19T17:24:06.314Z,76.60
2017-10-19T17:26:35.235Z,77.00
2017-10-19T17:29:03.476Z,76.90
2017-10-19T17:31:33.753Z,76.60
2017-10-19T17:34:02.383Z,76.50
2017-10-19T17:36:31.022Z,76.80
2017-10-19T17:38:59.142Z,77.00
2017-10-19T17:41:28.054Z,76.90
2017-10-19T17:43:56.185Z,76.70
2017-10-19T17:46:24.320Z,77.40
2017-10-19T17:48:55.377Z,76.60
2017-10-19T17:51:23.621Z,76.70
2017-10-19T17:53:55.253Z,76.90
2017-10-19T17:56:24.185Z,76.70
2017-10-19T17:58:52.302Z,76.70
2017-10-19T18:01:20.972Z,76.10
2017-10-19T18:03:49.128Z,76.00
2017-10-19T18:06:18.962Z,75.80
2017-10-19T18:08:47.136Z,75.00
2017-10-19T18:11:15.280Z,75.10
2017-10-19T18:13:43.417Z,74.70
2017-10-19T18:16:12.298Z,74.10
2017-10-19T18:18:43.720Z,74.40
2017-10-19T18:21:11.838Z,74.40
2017-10-19T18:23:42.754Z,74.40
2017-10-19T18:26:11.344Z,74.90
2017-10-19T18:28:41.548Z,75.40
2017-10-19T18:31:10.847Z,75.30
2017-10-19T18:33:39.495Z,75.40
2017-10-19T18:36:08.771Z,75.90
2017-10-19T18:38:37.749Z,76.20
2017-10-19T18:41:05.879Z,76.10
2017-10-19T18:43:37.847Z,76.30
2017-10-19T18:46:05.970Z,76.50
2017-10-19T18:48:34.945Z,76.50
2017-10-19T18:51:05.430Z,76.70
2017-10-19T18:53:33.573Z,76.70
2017-10-19T18:56:02.873Z,76.70
2017-10-19T18:58:32.266Z,76.50
2017-10-19T19:01:00.390Z,76.60
2017-10-19T19:03:29.108Z,76.60
2017-10-19T19:06:00.761Z,77.30
2017-10-19T19:08:28.909Z,77.10
2017-10-19T19:11:00.902Z,76.80
2017-10-19T19:13:31.058Z,77.50
2017-10-19T19:16:00.239Z,77.40
2017-10-19T19:18:29.111Z,77.50
2017-10-19T19:20:59.231Z,77.60
2017-10-19T19:23:28.171Z,77.60
2017-10-19T19:25:56.325Z,77.30
2017-10-19T19:28:31.105Z,77.60
2017-10-19T19:30:59.708Z,77.30
2017-10-19T19:33:31.058Z,78.40
2017-10-19T19:36:03.188Z,77.50
2017-10-19T19:38:31.399Z,77.40
2017-10-19T19:41:02.101Z,77.30
2017-10-19T19:43:33.797Z,78.50
2017-10-19T19:46:02.696Z,78.00
2017-10-19T19:48:32.614Z,78.20
2017-10-19T19:51:02.948Z,78.10
2017-10-19T19:53:32.955Z,78.40
2017-10-19T19:56:01.081Z,78.30
2017-10-19T19:58:29.862Z,78.40
2017-10-19T20:00:59.407Z,78.30
2017-10-19T20:03:27.626Z,77.90
2017-10-19T20:05:58.344Z,78.30
2017-10-19T20:08:28.585Z,78.80
2017-10-19T20:10:58.044Z,78.90
2017-10-19T20:13:26.243Z,79.20
2017-10-19T20:15:55.498Z,79.30
2017-10-19T20:18:25.266Z,79.20
2017-10-19T20:20:54.020Z,79.20
2017-10-19T20:23:22.652Z,79.30
2017-10-19T20:25:50.791Z,79.20
2017-10-19T20:28:19.081Z,79.90
2017-10-19T20:30:47.216Z,79.50
2017-10-19T20:33:16.145Z,79.40
2017-10-19T20:35:46.630Z,79.10
2017-10-19T20:38:14.753Z,79.20
2017-10-19T20:40:44.856Z,78.80
2017-10-19T20:43:13.437Z,78.70
2017-10-19T20:45:46.120Z,78.50
2017-10-19T20:48:17.080Z,78.20
2017-10-19T20:50:46.932Z,78.50
2017-10-19T20:53:18.600Z,78.20
2017-10-19T20:55:50.567Z,78.40
2017-10-19T20:58:20.758Z,78.20
2017-10-19T21:00:51.403Z,78.20
2017-10-19T21:03:21.329Z,78.00
2017-10-19T21:05:50.558Z,78.10
2017-10-19T21:08:20.112Z,78.20
2017-10-19T21:10:50.786Z,78.40
2017-10-19T21:13:21.708Z,78.60
2017-10-19T21:15:50.796Z,78.50
2017-10-19T21:18:19.719Z,78.30
2017-10-19T21:20:49.682Z,78.30
2017-10-19T21:23:20.532Z,78.90
2017-10-19T21:25:50.100Z,79.00
2017-10-19T21:28:20.291Z,78.90
2017-10-19T21:30:50.597Z,79.60
2017-10-19T21:33:19.689Z,79.50
2017-10-19T21:35:52.801Z,79.40
2017-10-19T21:38:23.185Z,79.30
2017-10-19T21:40:51.397Z,79.20
2017-10-19T21:43:19.573Z,79.20
2017-10-19T21:45:48.529Z,79.10
2017-10-19T21:48:18.021Z,78.90
2017-10-19T21:53:27.298Z,79.00
2017-10-19T21:56:05.936Z,78.80
2017-10-19T21:58:34.244Z,78.80
2017-10-19T22:01:10.487Z,79.00
2017-10-19T22:03:40.823Z,78.40
2017-10-19T22:06:11.401Z,78.40
2017-10-19T22:08:39.980Z,78.30
2017-10-19T22:11:08.606Z,78.00
2017-10-19T22:13:37.729Z,77.80
2017-10-19T22:16:06.326Z,78.00
2017-10-19T22:18:38.346Z,78.20
2017-10-19T22:21:06.552Z,77.90
2017-10-19T22:23:34.668Z,77.60
2017-10-19T22:26:05.778Z,77.60
2017-10-19T22:28:33.917Z,77.80
2017-10-19T22:31:05.887Z,77.60
2017-10-19T22:33:34.010Z,77.70
2017-10-19T22:36:04.597Z,77.70
2017-10-19T22:38:34.693Z,77.90
2017-10-19T22:41:05.207Z,77.40
2017-10-19T22:43:34.328Z,77.40
2017-10-19T22:46:04.268Z,77.70
2017-10-19T22:48:32.814Z,77.40
2017-10-19T22:51:02.120Z,77.40
2017-10-19T22:53:32.335Z,76.90
2017-10-19T22:56:00.493Z,77.30
2017-10-19T22:58:29.462Z,77.30
2017-10-19T23:00:59.268Z,76.30
2017-10-19T23:03:28.048Z,76.30
2017-10-19T23:05:56.171Z,75.90
2017-10-19T23:08:25.033Z,75.80
2017-10-19T23:10:53.910Z,75.80
2017-10-19T23:13:25.754Z,75.80
2017-10-19T23:15:53.903Z,75.80
2017-10-19T23:18:23.451Z,75.80
2017-10-19T23:20:56.340Z,76.80
2017-10-19T23:23:25.293Z,76.00
2017-10-19T23:25:55.657Z,76.10
2017-10-19T23:28:25.809Z,76.20
2017-10-19T23:30:53.939Z,76.20
2017-10-19T23:33:26.017Z,76.40
2017-10-19T23:35:57.118Z,76.70
2017-10-19T23:38:26.684Z,76.70
2017-10-19T23:40:54.804Z,77.10
2017-10-19T23:43:23.423Z,77.40
2017-10-19T23:45:52.309Z,77.40
2017-10-19T23:48:21.225Z,77.20
2017-10-19T23:50:49.341Z,77.20
2017-10-19T23:53:17.493Z,77.10
2017-10-19T23:55:45.613Z,77.10
2017-10-19T23:58:13.723Z,76.70
